createdAt,value
2023-03-27T00:02:29.696Z,8.16
2023-03-27T00:05:19.222Z,8.22
2023-03-27T00:08:04.294Z,8.21
2023-03-27T00:10:56.392Z,8.26
2023-03-27T00:13:50.719Z,8.23
2023-03-27T00:16:41.462Z,8.20
2023-03-27T00:19:30.507Z,8.14
2023-03-27T00:22:19.886Z,8.02
2023-03-27T00:25:08.748Z,8.03
2023-03-27T00:27:58.115Z,8.02
2023-03-27T00:30:42.402Z,7.94
2023-03-27T00:33:27.927Z,7.95
2023-03-27T00:36:12.628Z,8.01
2023-03-27T00:39:03.747Z,8.02
2023-03-27T00:41:57.250Z,8.01
2023-03-27T00:44:46.781Z,8.10
2023-03-27T00:47:39.821Z,8.01
2023-03-27T00:50:31.628Z,8.06
2023-03-27T00:53:21.471Z,8.13
2023-03-27T00:56:14.435Z,8.10
2023-03-27T00:59:10.155Z,7.99
2023-03-27T01:01:57.075Z,7.91
2023-03-27T01:04:48.785Z,7.86
2023-03-27T01:07:39.433Z,7.75
2023-03-27T01:10:34.911Z,7.74
2023-03-27T01:13:42.826Z,7.79
2023-03-27T01:16:43.418Z,7.78
2023-03-27T01:20:05.973Z,7.81
2023-03-27T01:23:14.579Z,7.81
2023-03-27T01:26:36.055Z,7.78
2023-03-27T01:29:37.095Z,7.70
2023-03-27T01:33:12.762Z,7.72
2023-03-27T01:36:23.496Z,7.63
2023-03-27T01:39:50.216Z,7.75
2023-03-27T01:42:44.526Z,7.76
2023-03-27T01:45:38.626Z,7.78
2023-03-27T01:48:37.231Z,7.90
2023-03-27T01:51:33.822Z,8.00
2023-03-27T01:54:26.338Z,8.13
2023-03-27T01:57:21.216Z,8.04
2023-03-27T02:00:19.812Z,8.10
2023-03-27T02:03:17.047Z,8.09
2023-03-27T02:06:13.940Z,8.25
2023-03-27T02:09:10.493Z,8.20
2023-03-27T02:12:06.406Z,8.29
2023-03-27T02:15:24.586Z,8.36
2023-03-27T02:18:14.901Z,8.29
2023-03-27T02:21:06.836Z,8.40
2023-03-27T02:23:50.726Z,8.46
2023-03-27T02:26:37.064Z,8.49
2023-03-27T02:29:50.499Z,8.51
2023-03-27T02:32:51.977Z,8.49
2023-03-27T02:35:53.154Z,8.61
2023-03-27T02:38:51.656Z,8.56
2023-03-27T02:41:50.597Z,8.55
2023-03-27T02:44:47.477Z,8.48
2023-03-27T02:47:37.051Z,8.33
2023-03-27T02:50:37.072Z,8.23
2023-03-27T02:53:26.865Z,8.06
2023-03-27T02:56:16.333Z,8.09
2023-03-27T02:59:07.377Z,8.17
2023-03-27T03:01:53.550Z,7.86
2023-03-27T03:04:47.752Z,7.76
2023-03-27T03:07:41.697Z,7.81
2023-03-27T03:10:34.286Z,7.66
2023-03-27T03:13:24.268Z,7.66
2023-03-27T03:16:18.166Z,7.62
2023-03-27T03:19:08.461Z,7.75
2023-03-27T03:21:55.739Z,7.71
2023-03-27T03:24:42.529Z,7.80
2023-03-27T03:27:29.388Z,7.89
2023-03-27T03:30:19.465Z,8.14
2023-03-27T03:33:10.078Z,8.26
2023-03-27T03:36:04.513Z,8.24
2023-03-27T03:38:48.797Z,8.18
2023-03-27T03:41:39.735Z,8.23
2023-03-27T03:44:27.008Z,8.29
2023-03-27T03:47:14.826Z,8.28
2023-03-27T03:50:04.242Z,8.37
2023-03-27T03:52:50.558Z,8.34
2023-03-27T03:55:40.808Z,8.42
2023-03-27T03:58:40.695Z,8.37
2023-03-27T04:01:26.480Z,8.33
2023-03-27T04:04:14.896Z,8.14
2023-03-27T04:07:01.985Z,8.20
2023-03-27T04:09:47.781Z,8.23
2023-03-27T04:12:32.667Z,8.25
2023-03-27T04:15:19.036Z,8.28
2023-03-27T04:18:04.864Z,8.27
2023-03-27T04:21:01.395Z,8.25
2023-03-27T04:23:51.829Z,8.10
2023-03-27T04:26:42.800Z,8.23
2023-03-27T04:29:31.357Z,8.31
2023-03-27T04:32:24.672Z,8.41
2023-03-27T04:35:14.045Z,8.49
2023-03-27T04:38:04.854Z,8.52
2023-03-27T04:40:53.531Z,8.53
2023-03-27T04:43:40.524Z,8.66
2023-03-27T04:46:31.008Z,8.61
2023-03-27T04:49:27.813Z,8.75
2023-03-27T04:52:15.467Z,8.84
2023-03-27T04:55:05.954Z,8.88
2023-03-27T04:57:50.808Z,9.06
2023-03-27T05:00:39.957Z,9.13
2023-03-27T05:03:29.254Z,9.41
2023-03-27T05:06:21.704Z,9.58
2023-03-27T05:09:09.009Z,9.70
2023-03-27T05:11:59.025Z,9.80
2023-03-27T05:14:46.598Z,9.83
2023-03-27T05:17:39.105Z,9.83
2023-03-27T05:20:27.515Z,10.24
2023-03-27T05:23:20.524Z,10.12
2023-03-27T05:26:10.570Z,10.01
2023-03-27T05:28:59.973Z,10.11
2023-03-27T05:31:50.477Z,10.26
2023-03-27T05:34:37.074Z,10.27
2023-03-27T05:37:27.873Z,10.50
2023-03-27T05:40:21.463Z,10.63
2023-03-27T05:43:15.800Z,10.91
2023-03-27T05:46:13.086Z,10.86
2023-03-27T05:49:12.772Z,10.75
2023-03-27T05:51:59.609Z,10.86
2023-03-27T05:54:54.529Z,11.42
2023-03-27T05:57:44.699Z,11.71
2023-03-27T06:00:37.534Z,12.04
2023-03-27T06:03:31.835Z,11.90
2023-03-27T06:06:18.928Z,11.99
2023-03-27T06:09:09.120Z,12.00
2023-03-27T06:11:59.728Z,11.73
2023-03-27T06:14:55.854Z,11.81
2023-03-27T06:17:43.082Z,11.73
2023-03-27T06:20:32.509Z,11.68
2023-03-27T06:23:26.118Z,12.43
2023-03-27T06:26:14.371Z,13.08
2023-03-27T06:29:08.802Z,12.26
2023-03-27T06:32:05.516Z,12.18
2023-03-27T06:34:53.205Z,12.37
2023-03-27T06:37:40.617Z,11.91
2023-03-27T06:40:30.326Z,11.51
2023-03-27T06:43:20.393Z,11.41
2023-03-27T06:46:15.026Z,11.67
2023-03-27T06:49:07.172Z,12.09
2023-03-27T06:51:56.683Z,12.89
2023-03-27T06:54:47.699Z,13.85
2023-03-27T06:57:36.354Z,14.06
2023-03-27T07:00:27.006Z,16.45
2023-03-27T07:03:21.573Z,18.20
2023-03-27T07:06:18.436Z,18.89
2023-03-27T07:09:08.599Z,19.31
2023-03-27T07:11:57.170Z,22.69
2023-03-27T07:14:49.363Z,24.31
2023-03-27T07:17:48.528Z,23.12
2023-03-27T07:20:39.867Z,28.58
2023-03-27T07:23:32.681Z,31.00
2023-03-27T07:26:24.260Z,29.23
2023-03-27T07:29:13.307Z,27.13
2023-03-27T07:32:06.965Z,25.63
2023-03-27T07:34:59.285Z,22.60
2023-03-27T07:37:48.527Z,22.26
2023-03-27T07:40:51.096Z,24.52
2023-03-27T07:43:40.869Z,25.16
2023-03-27T07:46:36.821Z,24.28
2023-03-27T07:49:39.369Z,22.26
2023-03-27T07:52:28.790Z,20.52
2023-03-27T07:55:19.214Z,18.83
2023-03-27T07:58:13.837Z,18.71
2023-03-27T08:01:08.154Z,18.37
2023-03-27T08:03:57.702Z,17.31
2023-03-27T08:06:48.982Z,16.63
2023-03-27T08:09:41.287Z,16.35
2023-03-27T08:12:31.274Z,16.31
2023-03-27T08:15:28.808Z,15.95
2023-03-27T08:18:16.931Z,15.76
2023-03-27T08:21:10.903Z,15.60
2023-03-27T08:24:03.255Z,15.54
2023-03-27T08:26:47.199Z,15.34
2023-03-27T08:29:37.230Z,15.30
2023-03-27T08:32:32.243Z,15.15
2023-03-27T08:35:21.536Z,14.98
2023-03-27T08:38:25.712Z,14.98
2023-03-27T08:41:31.982Z,14.60
2023-03-27T08:44:23.477Z,14.62
2023-03-27T08:47:21.175Z,14.49
2023-03-27T08:50:21.131Z,14.36
2023-03-27T08:53:12.137Z,14.37
2023-03-27T08:56:02.312Z,14.28
2023-03-27T08:58:54.062Z,14.34
2023-03-27T09:01:53.081Z,14.54
2023-03-27T09:04:49.214Z,14.79
2023-03-27T09:07:48.937Z,14.68
2023-03-27T09:10:42.474Z,14.60
2023-03-27T09:13:38.382Z,14.70
2023-03-27T09:19:38.216Z,14.66
2023-03-27T09:22:31.319Z,14.44
2023-03-27T09:25:26.060Z,14.15
2023-03-27T09:28:25.900Z,14.00
2023-03-27T09:31:31.492Z,14.08
2023-03-27T09:34:34.357Z,14.15
2023-03-27T09:37:26.364Z,14.18
2023-03-27T09:40:29.754Z,14.03
2023-03-27T09:43:29.083Z,14.19
2023-03-27T09:46:29.195Z,14.15
2023-03-27T09:49:23.804Z,14.04
2023-03-27T09:52:33.891Z,14.24
2023-03-27T09:55:41.416Z,14.28
2023-03-27T09:59:02.250Z,14.13
2023-03-27T10:01:56.405Z,14.31
2023-03-27T10:04:47.791Z,14.16
2023-03-27T10:07:38.990Z,14.46
2023-03-27T10:10:30.330Z,14.28
2023-03-27T10:13:22.719Z,14.09
2023-03-27T10:16:17.722Z,13.94
2023-03-27T10:19:11.795Z,13.76
2023-03-27T10:22:03.296Z,13.85
2023-03-27T10:24:53.066Z,13.89
2023-03-27T10:27:45.510Z,13.88
2023-03-27T10:30:42.540Z,14.05
2023-03-27T10:33:40.892Z,14.23
2023-03-27T10:36:33.464Z,14.26
2023-03-27T10:39:29.666Z,14.40
2023-03-27T10:42:24.737Z,14.14
2023-03-27T10:45:23.771Z,14.43
2023-03-27T10:48:21.815Z,14.66
2023-03-27T10:51:12.252Z,15.00
2023-03-27T10:54:06.276Z,15.12
2023-03-27T10:57:07.789Z,15.40
2023-03-27T11:00:02.386Z,15.56
2023-03-27T11:02:55.138Z,15.56
2023-03-27T11:05:58.496Z,15.32
2023-03-27T11:09:07.689Z,15.28
2023-03-27T11:12:02.200Z,15.26
2023-03-27T11:15:03.706Z,15.17
2023-03-27T11:18:01.922Z,15.09
2023-03-27T11:20:54.309Z,14.85
2023-03-27T11:23:49.033Z,14.77
2023-03-27T11:26:47.203Z,14.50
2023-03-27T11:29:39.713Z,14.31
2023-03-27T11:32:40.056Z,14.12
2023-03-27T11:35:35.772Z,13.54
2023-03-27T11:38:33.251Z,13.32
2023-03-27T11:41:25.528Z,12.96
2023-03-27T11:44:21.778Z,13.07
2023-03-27T11:47:28.626Z,12.95
2023-03-27T11:50:42.463Z,12.92
2023-03-27T11:54:02.339Z,12.78
2023-03-27T11:57:01.287Z,12.71
2023-03-27T12:00:17.491Z,12.43
2023-03-27T12:03:34.337Z,12.30
2023-03-27T12:06:38.368Z,12.24
2023-03-27T12:09:51.953Z,12.08
2023-03-27T12:13:08.841Z,11.73
2023-03-27T12:16:18.610Z,11.51
2023-03-27T12:19:29.834Z,10.64
2023-03-27T12:22:36.691Z,9.86
2023-03-27T12:25:52.377Z,9.34
2023-03-27T12:28:56.202Z,8.80
2023-03-27T12:32:00.500Z,8.67
2023-03-27T12:34:59.861Z,8.49
2023-03-27T12:37:55.974Z,8.50
2023-03-27T12:41:04.907Z,8.43
2023-03-27T12:44:00.508Z,8.37
2023-03-27T12:47:14.457Z,8.20
2023-03-27T12:50:05.446Z,8.33
2023-03-27T12:52:53.608Z,8.46
2023-03-27T12:55:48.031Z,8.75
2023-03-27T12:58:42.625Z,8.96
2023-03-27T13:01:58.528Z,9.10
2023-03-27T13:05:24.042Z,9.26
2023-03-27T13:08:35.374Z,9.39
2023-03-27T13:11:43.584Z,9.58
2023-03-27T13:15:03.222Z,9.90
2023-03-27T13:18:02.926Z,9.85
2023-03-27T13:21:00.900Z,9.88
2023-03-27T13:24:01.978Z,10.05
2023-03-27T13:27:00.704Z,10.17
2023-03-27T13:29:56.848Z,10.39
2023-03-27T13:32:46.716Z,10.46
2023-03-27T13:35:48.430Z,10.48
2023-03-27T13:39:09.801Z,10.56
2023-03-27T13:42:15.029Z,10.39
2023-03-27T13:45:04.768Z,10.36
2023-03-27T13:48:30.999Z,10.49
2023-03-27T13:51:35.596Z,10.38
2023-03-27T13:55:05.702Z,10.48
2023-03-27T13:58:10.015Z,10.67
2023-03-27T14:01:28.941Z,10.86
2023-03-27T14:04:41.424Z,10.96
2023-03-27T14:08:01.993Z,10.71
2023-03-27T14:11:05.529Z,10.84
2023-03-27T14:14:08.493Z,11.12
2023-03-27T14:17:10.745Z,11.27
2023-03-27T14:20:32.578Z,11.33
2023-03-27T14:23:24.100Z,11.47
2023-03-27T14:26:18.805Z,11.32
2023-03-27T14:29:04.803Z,11.25
2023-03-27T14:31:49.984Z,11.22
2023-03-27T14:34:56.206Z,11.31
2023-03-27T14:37:47.947Z,11.37
2023-03-27T14:40:41.057Z,10.99
2023-03-27T14:43:35.166Z,10.88
2023-03-27T14:46:31.266Z,11.13
2023-03-27T14:49:22.097Z,11.35
2023-03-27T14:52:20.571Z,11.28
2023-03-27T14:55:09.672Z,11.39
2023-03-27T14:58:02.307Z,11.32
2023-03-27T15:01:00.136Z,10.98
2023-03-27T15:03:48.590Z,10.72
2023-03-27T15:06:41.247Z,10.59
2023-03-27T15:09:34.842Z,10.22
2023-03-27T15:12:30.620Z,10.15
2023-03-27T15:15:44.881Z,9.88
2023-03-27T15:18:37.972Z,9.65
2023-03-27T15:21:36.175Z,9.55
2023-03-27T15:24:35.978Z,9.44
2023-03-27T15:27:29.633Z,9.24
2023-03-27T15:30:30.246Z,9.18
2023-03-27T15:33:25.183Z,9.15
2023-03-27T15:36:27.769Z,9.20
2023-03-27T15:39:27.302Z,9.15
2023-03-27T15:42:21.328Z,9.13
2023-03-27T15:45:13.034Z,9.18
2023-03-27T15:48:09.594Z,9.04
2023-03-27T15:51:01.234Z,9.13
2023-03-27T15:53:48.644Z,9.09
2023-03-27T15:56:50.101Z,8.95
2023-03-27T15:59:37.127Z,8.95
2023-03-27T16:02:43.933Z,8.91
2023-03-27T16:05:30.833Z,8.89
2023-03-27T16:08:30.236Z,8.81
2023-03-27T16:11:19.292Z,8.75
2023-03-27T16:14:10.645Z,8.80
2023-03-27T16:17:15.240Z,8.67
2023-03-27T16:20:03.674Z,8.55
2023-03-27T16:22:53.388Z,8.44
2023-03-27T16:25:45.732Z,8.45
2023-03-27T16:28:35.457Z,8.41
2023-03-27T16:31:25.319Z,8.33
2023-03-27T16:34:22.480Z,8.36
2023-03-27T16:37:09.594Z,8.32
2023-03-27T16:40:07.972Z,8.32
2023-03-27T16:42:57.139Z,8.12
2023-03-27T16:45:48.597Z,8.14
2023-03-27T16:48:36.021Z,8.17
2023-03-27T16:51:26.666Z,8.14
2023-03-27T16:54:12.094Z,8.14
2023-03-27T16:57:05.664Z,8.08
2023-03-27T16:59:52.460Z,8.08
2023-03-27T17:02:42.328Z,8.03
2023-03-27T17:05:27.334Z,8.02
2023-03-27T17:08:20.052Z,7.98
2023-03-27T17:11:09.801Z,7.85
2023-03-27T17:13:56.621Z,7.82
2023-03-27T17:16:58.365Z,7.81
2023-03-27T17:19:42.286Z,7.84
2023-03-27T17:22:30.306Z,7.71
2023-03-27T17:25:18.557Z,7.65
2023-03-27T17:28:05.338Z,7.62
2023-03-27T17:31:03.342Z,7.54
2023-03-27T17:33:51.356Z,7.45
2023-03-27T17:36:47.118Z,7.49
2023-03-27T17:39:43.035Z,7.57
2023-03-27T17:42:32.985Z,7.52
2023-03-27T17:45:19.571Z,7.58
2023-03-27T17:48:10.223Z,7.65
2023-03-27T17:51:07.979Z,7.63
2023-03-27T17:53:53.943Z,7.63
2023-03-27T17:56:45.079Z,7.60
2023-03-27T17:59:34.218Z,7.65
2023-03-27T18:02:20.657Z,7.63
2023-03-27T18:05:05.445Z,7.55
2023-03-27T18:07:51.942Z,7.49
2023-03-27T18:10:41.374Z,7.38
2023-03-27T18:13:29.579Z,7.31
2023-03-27T18:16:21.075Z,7.27
2023-03-27T18:19:09.602Z,7.29
2023-03-27T18:21:54.381Z,7.25
2023-03-27T18:24:38.427Z,7.32
2023-03-27T18:27:24.785Z,7.49
2023-03-27T18:30:12.961Z,7.59
2023-03-27T18:33:02.414Z,7.62
2023-03-27T18:35:49.043Z,7.65
2023-03-27T18:38:35.928Z,7.64
2023-03-27T18:41:21.568Z,7.65
2023-03-27T18:44:07.692Z,7.62
2023-03-27T18:46:52.664Z,7.46
2023-03-27T18:49:41.396Z,7.43
2023-03-27T18:52:28.029Z,7.27
2023-03-27T18:55:14.757Z,7.22
2023-03-27T18:58:01.911Z,7.14
2023-03-27T19:00:47.635Z,7.09
2023-03-27T19:03:35.784Z,7.05
2023-03-27T19:06:23.500Z,7.02
2023-03-27T19:09:11.593Z,6.88
2023-03-27T19:12:01.107Z,6.77
2023-03-27T19:14:46.978Z,6.71
2023-03-27T19:17:34.757Z,6.54
2023-03-27T19:20:21.518Z,6.47
2023-03-27T19:23:11.035Z,6.58
2023-03-27T19:25:55.158Z,6.50
2023-03-27T19:28:41.717Z,6.63
2023-03-27T19:31:31.471Z,6.71
2023-03-27T19:34:18.204Z,6.86
2023-03-27T19:37:02.461Z,6.86
2023-03-27T19:39:47.203Z,6.89
2023-03-27T19:42:30.908Z,6.91
2023-03-27T19:45:16.643Z,6.97
2023-03-27T19:47:59.865Z,6.84
2023-03-27T19:50:43.151Z,6.83
2023-03-27T19:53:27.264Z,6.90
2023-03-27T19:56:12.150Z,6.88
2023-03-27T19:58:56.263Z,6.90
2023-03-27T20:01:40.601Z,6.89
2023-03-27T20:04:23.813Z,6.88
2023-03-27T20:07:10.278Z,6.78
2023-03-27T20:09:53.707Z,6.82
2023-03-27T20:12:38.543Z,6.91
2023-03-27T20:15:22.760Z,6.68
2023-03-27T20:18:06.238Z,6.79
2023-03-27T20:20:50.292Z,6.79
2023-03-27T20:23:33.590Z,6.90
2023-03-27T20:26:17.449Z,6.88
2023-03-27T20:29:06.668Z,6.86
2023-03-27T20:31:50.092Z,6.91
2023-03-27T20:34:35.704Z,6.95
2023-03-27T20:37:22.369Z,7.00
2023-03-27T20:40:12.516Z,6.97
2023-03-27T20:43:04.655Z,6.98
2023-03-27T20:45:56.414Z,6.92
2023-03-27T20:48:53.539Z,6.89
2023-03-27T20:51:41.932Z,6.91
2023-03-27T20:54:31.520Z,6.79
2023-03-27T20:57:17.148Z,6.82
2023-03-27T21:00:00.904Z,6.69
2023-03-27T21:02:49.586Z,6.54
2023-03-27T21:05:39.585Z,6.53
2023-03-27T21:08:28.512Z,6.52
2023-03-27T21:11:16.382Z,6.52
2023-03-27T21:14:03.807Z,6.50
2023-03-27T21:16:51.780Z,6.48
2023-03-27T21:19:39.852Z,6.33
2023-03-27T21:22:31.190Z,6.29
2023-03-27T21:25:19.983Z,6.07
2023-03-27T21:28:07.989Z,6.24
2023-03-27T21:30:55.530Z,6.27
2023-03-27T21:33:39.930Z,6.32
2023-03-27T21:36:30.070Z,6.31
2023-03-27T21:39:16.172Z,6.24
2023-03-27T21:42:04.208Z,6.34
2023-03-27T21:44:53.923Z,6.29
2023-03-27T21:47:47.628Z,6.28
2023-03-27T21:50:33.991Z,6.32
2023-03-27T21:53:23.469Z,6.29
2023-03-27T21:56:12.971Z,6.15
2023-03-27T21:59:01.171Z,6.11
2023-03-27T22:01:48.515Z,6.19
2023-03-27T22:04:38.767Z,6.16
2023-03-27T22:07:27.111Z,5.98
2023-03-27T22:10:18.468Z,5.97
2023-03-27T22:13:04.353Z,6.05
2023-03-27T22:15:49.643Z,5.96
2023-03-27T22:18:38.963Z,6.01
2023-03-27T22:21:27.624Z,6.06
2023-03-27T22:24:17.864Z,6.02
2023-03-27T22:27:05.172Z,6.00
2023-03-27T22:29:51.219Z,6.04
2023-03-27T22:32:36.851Z,5.92
2023-03-27T22:35:24.907Z,5.92
2023-03-27T22:38:08.751Z,5.77
2023-03-27T22:40:57.064Z,5.76
2023-03-27T22:43:48.893Z,5.63
2023-03-27T22:46:41.756Z,5.61
2023-03-27T22:49:25.909Z,5.38
2023-03-27T22:52:12.034Z,5.43
2023-03-27T22:55:01.494Z,5.29
2023-03-27T22:57:48.004Z,5.35
2023-03-27T23:00:38.674Z,5.36
2023-03-27T23:03:26.213Z,5.21
2023-03-27T23:06:21.572Z,5.01
2023-03-27T23:09:09.281Z,4.85
2023-03-27T23:11:55.040Z,4.68
2023-03-27T23:14:42.652Z,4.54
2023-03-27T23:17:32.568Z,4.28
2023-03-27T23:20:17.106Z,4.27
2023-03-27T23:23:04.360Z,4.28
2023-03-27T23:25:51.187Z,4.02
2023-03-27T23:28:41.366Z,3.94
2023-03-27T23:31:33.354Z,3.85
2023-03-27T23:34:24.123Z,3.80
2023-03-27T23:37:11.627Z,3.57
2023-03-27T23:39:59.799Z,3.54
2023-03-27T23:42:45.916Z,3.57
2023-03-27T23:45:31.653Z,3.58
2023-03-27T23:48:18.737Z,3.50
2023-03-27T23:51:06.754Z,3.51
2023-03-27T23:53:53.234Z,3.35
2023-03-27T23:56:39.783Z,3.29
2023-03-27T23:59:29.219Z,3.33
